Japan Airlines Virtual Airport Information Service

Memanbetsu Airport

ICAO: RJCM Country: Japan
Latitude: 43.8806 Longitude: 144.164
Latest Arrival : JALJUMP (RJCW-RJCM) Latest Departure : JAL562 (RJCM-RJTT)


WX CaptureLIVE
Data provided by noaa.gov | Fetched at 15:54:14

METAR : RJCM 291100Z 19003KT 9999 FEW020 BKN/// 14/11 Q1012

TAF : RJCM 291112Z 2912/3018 20005KT 9999 FEW020 BECMG 3003/3006 36005KT TEMPO 3009/3018 3000 BR FEW003 BKN006


Runway Data for RJCM
Data provided by openaviationdata.com

Runway ID Mag Var Hdg Length Elevation Surface ILS Freq ILS Id ILS Slope
18 -9 183° 8204 ft 109 ft Asphalt 110.1 ITB 3
36 -9 8204 ft 109 ft Asphalt -- -- --

Memanbetsu Airport, Japan
Use only for reference purposes



Not for navigational purposes.